sensor_id;sensor_type;location;lat;lon;timestamp;temperature;humidity
24148;DHT22;12309;51.450;-2.624;2023-12-29T14:54:02;10.20;99.90
24148;DHT22;12309;51.450;-2.624;2023-12-29T14:56:28;10.20;99.90
24148;DHT22;12309;51.450;-2.624;2023-12-29T14:58:54;10.60;99.90
24148;DHT22;12309;51.450;-2.624;2023-12-29T15:01:20;10.50;99.90
24148;DHT22;12309;51.450;-2.624;2023-12-29T15:03:45;10.30;99.90
24148;DHT22;12309;51.450;-2.624;2023-12-29T15:06:11;10.10;99.90
24148;DHT22;12309;51.450;-2.624;2023-12-29T15:08:36;10.00;99.90
24148;DHT22;12309;51.450;-2.624;2023-12-29T15:11:06;9.50;99.90
24148;DHT22;12309;51.450;-2.624;2023-12-29T15:13:32;9.80;99.90
24148;DHT22;12309;51.450;-2.624;2023-12-29T15:15:59;9.80;99.90
24148;DHT22;12309;51.450;-2.624;2023-12-29T15:18:26;9.70;99.90
24148;DHT22;12309;51.450;-2.624;2023-12-29T15:20:51;9.60;99.90
24148;DHT22;12309;51.450;-2.624;2023-12-29T15:23:17;9.60;99.90
24148;DHT22;12309;51.450;-2.624;2023-12-29T15:25:43;9.60;99.90
24148;DHT22;12309;51.450;-2.624;2023-12-29T15:28:08;9.60;99.90
24148;DHT22;12309;51.450;-2.624;2023-12-29T15:30:34;9.60;99.90
24148;DHT22;12309;51.450;-2.624;2023-12-29T15:33:00;9.50;99.90
24148;DHT22;12309;51.450;-2.624;2023-12-29T15:35:25;9.50;99.90
24148;DHT22;12309;51.450;-2.624;2023-12-29T15:37:51;9.50;99.90
24148;DHT22;12309;51.450;-2.624;2023-12-29T15:40:16;9.50;99.90
24148;DHT22;12309;51.450;-2.624;2023-12-29T15:42:42;9.50;99.90
24148;DHT22;12309;51.450;-2.624;2023-12-29T15:45:08;9.40;99.90
24148;DHT22;12309;51.450;-2.624;2023-12-29T15:47:35;9.40;99.90
24148;DHT22;12309;51.450;-2.624;2023-12-29T15:50:01;9.40;99.90
24148;DHT22;12309;51.450;-2.624;2023-12-29T15:52:27;9.40;99.90
24148;DHT22;12309;51.450;-2.624;2023-12-29T15:54:53;9.40;99.90
24148;DHT22;12309;51.450;-2.624;2023-12-29T15:57:19;9.40;99.90
24148;DHT22;12309;51.450;-2.624;2023-12-29T15:59:45;9.30;99.90
24148;DHT22;12309;51.450;-2.624;2023-12-29T16:02:11;9.30;99.90
24148;DHT22;12309;51.450;-2.624;2023-12-29T16:04:37;9.30;99.90
24148;DHT22;12309;51.450;-2.624;2023-12-29T16:07:03;9.30;99.90
24148;DHT22;12309;51.450;-2.624;2023-12-29T16:09:28;9.20;99.90
24148;DHT22;12309;51.450;-2.624;2023-12-29T16:11:54;9.20;99.90
24148;DHT22;12309;51.450;-2.624;2023-12-29T16:14:20;9.10;99.90
24148;DHT22;12309;51.450;-2.624;2023-12-29T16:16:47;9.10;99.90
24148;DHT22;12309;51.450;-2.624;2023-12-29T16:19:12;9.10;99.90
24148;DHT22;12309;51.450;-2.624;2023-12-29T16:21:39;9.10;99.90
24148;DHT22;12309;51.450;-2.624;2023-12-29T16:24:08;9.00;99.90
24148;DHT22;12309;51.450;-2.624;2023-12-29T16:26:35;9.00;99.90
24148;DHT22;12309;51.450;-2.624;2023-12-29T16:29:03;9.10;99.90
24148;DHT22;12309;51.450;-2.624;2023-12-29T16:31:29;9.10;99.90
24148;DHT22;12309;51.450;-2.624;2023-12-29T16:33:55;9.10;99.90
24148;DHT22;12309;51.450;-2.624;2023-12-29T16:36:21;9.10;99.90
24148;DHT22;12309;51.450;-2.624;2023-12-29T16:38:48;9.20;99.90
24148;DHT22;12309;51.450;-2.624;2023-12-29T16:41:16;9.20;99.90
24148;DHT22;12309;51.450;-2.624;2023-12-29T16:43:42;9.20;99.90
24148;DHT22;12309;51.450;-2.624;2023-12-29T16:46:08;9.20;99.90
24148;DHT22;12309;51.450;-2.624;2023-12-29T16:48:34;9.20;99.90
24148;DHT22;12309;51.450;-2.624;2023-12-29T16:51:00;9.20;99.90
24148;DHT22;12309;51.450;-2.624;2023-12-29T16:53:26;9.20;99.90
24148;DHT22;12309;51.450;-2.624;2023-12-29T16:55:52;9.10;99.90
24148;DHT22;12309;51.450;-2.624;2023-12-29T16:58:18;9.20;99.90
24148;DHT22;12309;51.450;-2.624;2023-12-29T17:00:47;9.20;99.90
24148;DHT22;12309;51.450;-2.624;2023-12-29T17:03:13;9.20;99.90
24148;DHT22;12309;51.450;-2.624;2023-12-29T17:05:40;9.20;99.90
24148;DHT22;12309;51.450;-2.624;2023-12-29T17:08:06;9.20;99.90
24148;DHT22;12309;51.450;-2.624;2023-12-29T17:10:31;9.00;99.90
24148;DHT22;12309;51.450;-2.624;2023-12-29T17:12:57;8.80;99.90
24148;DHT22;12309;51.450;-2.624;2023-12-29T17:15:22;8.70;99.90
24148;DHT22;12309;51.450;-2.624;2023-12-29T17:17:48;8.60;99.90
24148;DHT22;12309;51.450;-2.624;2023-12-29T17:20:15;8.40;99.90
24148;DHT22;12309;51.450;-2.624;2023-12-29T17:22:41;8.30;99.90
24148;DHT22;12309;51.450;-2.624;2023-12-29T17:25:07;8.20;99.90
24148;DHT22;12309;51.450;-2.624;2023-12-29T17:27:34;8.20;99.90
24148;DHT22;12309;51.450;-2.624;2023-12-29T17:29:59;8.20;99.90
24148;DHT22;12309;51.450;-2.624;2023-12-29T17:32:25;8.10;99.90
24148;DHT22;12309;51.450;-2.624;2023-12-29T17:34:51;8.10;99.90
24148;DHT22;12309;51.450;-2.624;2023-12-29T17:37:16;8.20;99.90
24148;DHT22;12309;51.450;-2.624;2023-12-29T17:39:42;8.20;99.90
24148;DHT22;12309;51.450;-2.624;2023-12-29T17:42:07;8.10;99.90
24148;DHT22;12309;51.450;-2.624;2023-12-29T17:44:37;8.00;99.90
24148;DHT22;12309;51.450;-2.624;2023-12-29T17:47:03;8.00;99.90
24148;DHT22;12309;51.450;-2.624;2023-12-29T17:49:29;8.00;99.90
24148;DHT22;12309;51.450;-2.624;2023-12-29T17:51:55;8.00;99.90
24148;DHT22;12309;51.450;-2.624;2023-12-29T17:59:14;8.00;99.90
24148;DHT22;12309;51.450;-2.624;2023-12-29T18:01:40;8.00;99.90
24148;DHT22;12309;51.450;-2.624;2023-12-29T18:04:05;8.00;99.90
24148;DHT22;12309;51.450;-2.624;2023-12-29T18:06:31;8.00;99.90
24148;DHT22;12309;51.450;-2.624;2023-12-29T18:08:58;8.00;99.90
24148;DHT22;12309;51.450;-2.624;2023-12-29T18:11:24;8.10;99.90
24148;DHT22;12309;51.450;-2.624;2023-12-29T18:13:52;8.10;99.90
24148;DHT22;12309;51.450;-2.624;2023-12-29T18:16:17;8.10;99.90
24148;DHT22;12309;51.450;-2.624;2023-12-29T18:18:44;8.10;99.90
24148;DHT22;12309;51.450;-2.624;2023-12-29T18:21:10;8.10;99.90
24148;DHT22;12309;51.450;-2.624;2023-12-29T18:23:36;8.10;99.90
24148;DHT22;12309;51.450;-2.624;2023-12-29T18:26:01;8.10;99.90
24148;DHT22;12309;51.450;-2.624;2023-12-29T18:28:29;8.10;99.90
24148;DHT22;12309;51.450;-2.624;2023-12-29T18:30:56;8.00;99.90
24148;DHT22;12309;51.450;-2.624;2023-12-29T18:33:22;8.00;99.90
24148;DHT22;12309;51.450;-2.624;2023-12-29T18:35:47;8.00;99.90
24148;DHT22;12309;51.450;-2.624;2023-12-29T18:38:14;8.00;99.90
24148;DHT22;12309;51.450;-2.624;2023-12-29T18:40:40;8.00;99.90
24148;DHT22;12309;51.450;-2.624;2023-12-29T18:43:06;8.00;99.90
24148;DHT22;12309;51.450;-2.624;2023-12-29T18:45:31;8.10;99.90
24148;DHT22;12309;51.450;-2.624;2023-12-29T18:47:57;8.10;99.90
24148;DHT22;12309;51.450;-2.624;2023-12-29T18:50:24;8.20;99.90
24148;DHT22;12309;51.450;-2.624;2023-12-29T18:52:50;8.20;99.90
24148;DHT22;12309;51.450;-2.624;2023-12-29T18:55:16;8.20;99.90
24148;DHT22;12309;51.450;-2.624;2023-12-29T18:57:42;8.10;99.90
24148;DHT22;12309;51.450;-2.624;2023-12-29T19:00:08;8.10;99.90
24148;DHT22;12309;51.450;-2.624;2023-12-29T19:02:33;8.00;99.90
24148;DHT22;12309;51.450;-2.624;2023-12-29T19:04:59;8.00;99.90
24148;DHT22;12309;51.450;-2.624;2023-12-29T19:07:25;7.90;99.90
24148;DHT22;12309;51.450;-2.624;2023-12-29T19:09:51;7.90;99.90
24148;DHT22;12309;51.450;-2.624;2023-12-29T19:12:16;7.80;99.90
24148;DHT22;12309;51.450;-2.624;2023-12-29T19:14:42;7.70;99.90
24148;DHT22;12309;51.450;-2.624;2023-12-29T19:17:10;7.70;99.90
24148;DHT22;12309;51.450;-2.624;2023-12-29T19:19:36;7.70;99.90
24148;DHT22;12309;51.450;-2.624;2023-12-29T19:22:01;7.70;99.90
24148;DHT22;12309;51.450;-2.624;2023-12-29T19:24:27;7.60;99.90
24148;DHT22;12309;51.450;-2.624;2023-12-29T19:26:53;7.60;99.90
24148;DHT22;12309;51.450;-2.624;2023-12-29T19:29:19;7.60;99.90
24148;DHT22;12309;51.450;-2.624;2023-12-29T19:31:45;7.60;99.90
24148;DHT22;12309;51.450;-2.624;2023-12-29T19:34:11;7.60;99.90
24148;DHT22;12309;51.450;-2.624;2023-12-29T19:36:37;7.60;99.90
24148;DHT22;12309;51.450;-2.624;2023-12-29T19:39:03;7.60;99.90
24148;DHT22;12309;51.450;-2.624;2023-12-29T19:41:34;7.70;99.90
24148;DHT22;12309;51.450;-2.624;2023-12-29T19:44:01;7.80;99.90
24148;DHT22;12309;51.450;-2.624;2023-12-29T19:46:28;7.90;99.90
24148;DHT22;12309;51.450;-2.624;2023-12-29T19:48:54;7.90;99.90
24148;DHT22;12309;51.450;-2.624;2023-12-29T19:51:19;8.20;99.90
24148;DHT22;12309;51.450;-2.624;2023-12-29T19:53:46;7.80;99.90
24148;DHT22;12309;51.450;-2.624;2023-12-29T19:56:11;7.90;99.90
24148;DHT22;12309;51.450;-2.624;2023-12-29T19:58:37;7.90;99.90
24148;DHT22;12309;51.450;-2.624;2023-12-29T20:01:05;7.80;99.90
24148;DHT22;12309;51.450;-2.624;2023-12-29T20:03:31;7.80;99.90
24148;DHT22;12309;51.450;-2.624;2023-12-29T20:05:57;7.70;99.90
24148;DHT22;12309;51.450;-2.624;2023-12-29T20:08:23;7.70;99.90
24148;DHT22;12309;51.450;-2.624;2023-12-29T20:10:48;7.70;99.90
24148;DHT22;12309;51.450;-2.624;2023-12-29T20:13:14;8.00;99.90
24148;DHT22;12309;51.450;-2.624;2023-12-29T20:15:41;7.60;99.90
24148;DHT22;12309;51.450;-2.624;2023-12-29T20:18:08;7.50;99.90
24148;DHT22;12309;51.450;-2.624;2023-12-29T20:20:36;7.50;99.90
24148;DHT22;12309;51.450;-2.624;2023-12-29T20:23:02;7.40;99.90
24148;DHT22;12309;51.450;-2.624;2023-12-29T20:25:28;7.40;99.90
24148;DHT22;12309;51.450;-2.624;2023-12-29T20:27:53;7.30;99.90
24148;DHT22;12309;51.450;-2.624;2023-12-29T20:30:19;7.30;99.90
24148;DHT22;12309;51.450;-2.624;2023-12-29T20:32:45;7.30;99.90
24148;DHT22;12309;51.450;-2.624;2023-12-29T20:35:11;7.30;99.90
24148;DHT22;12309;51.450;-2.624;2023-12-29T20:37:39;7.20;99.90
24148;DHT22;12309;51.450;-2.624;2023-12-29T20:40:05;7.20;99.90
24148;DHT22;12309;51.450;-2.624;2023-12-29T20:42:31;7.20;99.90
24148;DHT22;12309;51.450;-2.624;2023-12-29T20:44:56;7.50;99.90
24148;DHT22;12309;51.450;-2.624;2023-12-29T20:47:24;7.40;99.90
24148;DHT22;12309;51.450;-2.624;2023-12-29T20:49:49;7.40;99.90
24148;DHT22;12309;51.450;-2.624;2023-12-29T20:52:15;7.50;99.90
24148;DHT22;12309;51.450;-2.624;2023-12-29T20:54:43;7.50;99.90
24148;DHT22;12309;51.450;-2.624;2023-12-29T20:57:08;7.50;99.90
24148;DHT22;12309;51.450;-2.624;2023-12-29T20:59:34;7.50;99.90
24148;DHT22;12309;51.450;-2.624;2023-12-29T21:02:03;7.50;99.90
24148;DHT22;12309;51.450;-2.624;2023-12-29T21:04:30;7.50;99.90
24148;DHT22;12309;51.450;-2.624;2023-12-29T21:06:56;7.40;99.90
24148;DHT22;12309;51.450;-2.624;2023-12-29T21:09:24;7.40;99.90
24148;DHT22;12309;51.450;-2.624;2023-12-29T21:11:50;7.40;99.90
24148;DHT22;12309;51.450;-2.624;2023-12-29T21:14:15;7.50;99.90
24148;DHT22;12309;51.450;-2.624;2023-12-29T21:16:41;7.50;99.90
24148;DHT22;12309;51.450;-2.624;2023-12-29T21:19:07;7.50;99.90
24148;DHT22;12309;51.450;-2.624;2023-12-29T21:21:37;7.50;99.90
24148;DHT22;12309;51.450;-2.624;2023-12-29T21:24:03;7.50;99.90
24148;DHT22;12309;51.450;-2.624;2023-12-29T21:26:30;7.50;99.90
24148;DHT22;12309;51.450;-2.624;2023-12-29T21:28:57;7.60;99.90
24148;DHT22;12309;51.450;-2.624;2023-12-29T21:31:25;7.60;99.90
24148;DHT22;12309;51.450;-2.624;2023-12-29T21:33:51;7.70;99.90
24148;DHT22;12309;51.450;-2.624;2023-12-29T21:36:27;7.70;99.90
24148;DHT22;12309;51.450;-2.624;2023-12-29T21:38:53;7.60;99.90
24148;DHT22;12309;51.450;-2.624;2023-12-29T21:41:19;7.60;99.90
24148;DHT22;12309;51.450;-2.624;2023-12-29T21:43:45;7.50;99.90
24148;DHT22;12309;51.450;-2.624;2023-12-29T21:46:12;7.50;99.90
24148;DHT22;12309;51.450;-2.624;2023-12-29T21:48:38;7.50;99.90
24148;DHT22;12309;51.450;-2.624;2023-12-29T21:51:04;7.60;99.90
24148;DHT22;12309;51.450;-2.624;2023-12-29T21:53:30;7.70;99.90
24148;DHT22;12309;51.450;-2.624;2023-12-29T21:55:56;7.70;99.90
24148;DHT22;12309;51.450;-2.624;2023-12-29T21:58:28;7.80;99.90
24148;DHT22;12309;51.450;-2.624;2023-12-29T22:03:51;7.90;99.90
24148;DHT22;12309;51.450;-2.624;2023-12-29T22:06:17;7.90;99.90
24148;DHT22;12309;51.450;-2.624;2023-12-29T22:08:43;7.90;99.90
24148;DHT22;12309;51.450;-2.624;2023-12-29T22:11:08;7.80;99.90
24148;DHT22;12309;51.450;-2.624;2023-12-29T22:13:34;7.60;99.90
24148;DHT22;12309;51.450;-2.624;2023-12-29T22:16:00;7.70;99.90
24148;DHT22;12309;51.450;-2.624;2023-12-29T22:18:25;7.60;99.90
24148;DHT22;12309;51.450;-2.624;2023-12-29T22:20:51;7.60;99.90
24148;DHT22;12309;51.450;-2.624;2023-12-29T22:23:16;7.60;99.90
24148;DHT22;12309;51.450;-2.624;2023-12-29T22:25:45;7.60;99.90
24148;DHT22;12309;51.450;-2.624;2023-12-29T22:28:11;7.60;99.90
24148;DHT22;12309;51.450;-2.624;2023-12-29T22:30:38;7.60;99.90
24148;DHT22;12309;51.450;-2.624;2023-12-29T22:33:04;7.60;99.90
24148;DHT22;12309;51.450;-2.624;2023-12-29T22:35:29;7.60;99.90
24148;DHT22;12309;51.450;-2.624;2023-12-29T22:37:55;7.60;99.90
24148;DHT22;12309;51.450;-2.624;2023-12-29T22:40:21;7.60;99.90
24148;DHT22;12309;51.450;-2.624;2023-12-29T22:42:46;7.50;99.90
24148;DHT22;12309;51.450;-2.624;2023-12-29T22:45:14;7.60;99.90
